createdAt,value
2023-03-06T00:01:06.828Z,96.26
2023-03-06T00:03:34.304Z,95.87
2023-03-06T00:06:01.749Z,96.29
2023-03-06T00:08:29.445Z,95.52
2023-03-06T00:10:56.818Z,96.10
2023-03-06T00:13:23.307Z,96.41
2023-03-06T00:15:50.036Z,96.22
2023-03-06T00:18:16.573Z,95.64
2023-03-06T00:20:43.857Z,94.71
2023-03-06T00:23:10.288Z,94.57
2023-03-06T00:25:38.572Z,93.37
2023-03-06T00:28:06.107Z,93.91
2023-03-06T00:30:32.710Z,94.41
2023-03-06T00:32:59.085Z,94.03
2023-03-06T00:35:25.458Z,93.94
2023-03-06T00:37:52.075Z,94.84
2023-03-06T00:40:20.195Z,95.08
2023-03-06T00:42:47.771Z,94.75
2023-03-06T00:45:14.884Z,95.18
2023-03-06T00:47:41.864Z,95.17
2023-03-06T00:50:10.530Z,94.83
2023-03-06T00:52:37.406Z,94.97
2023-03-06T00:55:04.702Z,94.01
2023-03-06T00:57:31.239Z,94.46
2023-03-06T00:59:57.670Z,93.59
2023-03-06T01:02:24.252Z,92.90
2023-03-06T01:04:50.978Z,92.88
2023-03-06T01:07:17.433Z,92.81
2023-03-06T01:09:43.927Z,92.98
2023-03-06T01:12:10.537Z,93.94
2023-03-06T01:14:36.972Z,93.68
2023-03-06T01:17:03.568Z,92.83
2023-03-06T01:19:30.422Z,93.34
2023-03-06T01:21:56.849Z,94.19
2023-03-06T01:24:25.591Z,93.58
2023-03-06T01:26:52.125Z,93.84
2023-03-06T01:29:18.614Z,94.89
2023-03-06T01:31:45.073Z,95.04
2023-03-06T01:34:11.866Z,95.03
2023-03-06T01:36:38.439Z,95.01
2023-03-06T01:39:04.976Z,94.62
2023-03-06T01:41:32.870Z,94.72
2023-03-06T01:43:59.677Z,95.81
2023-03-06T01:46:29.023Z,95.14
2023-03-06T01:49:10.805Z,95.26
2023-03-06T01:52:00.190Z,94.25
2023-03-06T01:54:31.510Z,93.36
2023-03-06T01:57:11.598Z,92.88
2023-03-06T01:59:40.307Z,93.90
2023-03-06T02:02:10.249Z,92.69
2023-03-06T02:04:39.448Z,93.28
2023-03-06T02:07:08.497Z,93.58
2023-03-06T02:09:36.166Z,95.30
2023-03-06T02:12:07.912Z,95.07
2023-03-06T02:14:34.970Z,95.02
2023-03-06T02:17:01.885Z,95.22
2023-03-06T02:19:38.510Z,95.79
2023-03-06T02:22:05.718Z,95.15
2023-03-06T02:24:36.601Z,93.40
2023-03-06T02:27:05.395Z,95.75
2023-03-06T02:29:32.388Z,95.61
2023-03-06T02:31:58.870Z,95.92
2023-03-06T02:34:25.442Z,94.43
2023-03-06T02:37:03.070Z,93.05
2023-03-06T02:39:33.151Z,93.11
2023-03-06T02:41:59.945Z,92.83
2023-03-06T02:44:27.713Z,93.40
2023-03-06T02:46:54.211Z,92.57
2023-03-06T02:49:20.743Z,92.62
2023-03-06T02:51:47.462Z,94.82
2023-03-06T02:54:13.918Z,94.94
2023-03-06T02:56:40.306Z,95.44
2023-03-06T02:59:06.666Z,94.58
2023-03-06T03:01:33.157Z,95.29
2023-03-06T03:03:59.583Z,94.50
2023-03-06T03:06:26.058Z,94.50
2023-03-06T03:08:52.484Z,94.71
2023-03-06T03:11:18.829Z,94.21
2023-03-06T03:13:45.360Z,92.91
2023-03-06T03:16:15.317Z,93.78
2023-03-06T03:18:47.743Z,94.40
2023-03-06T03:21:14.789Z,95.46
2023-03-06T03:23:41.287Z,94.93
2023-03-06T03:26:13.755Z,94.76
2023-03-06T03:28:40.229Z,95.49
2023-03-06T03:31:09.266Z,94.63
2023-03-06T03:33:35.769Z,94.44
2023-03-06T03:36:04.585Z,94.65
2023-03-06T03:38:31.766Z,94.85
2023-03-06T03:40:58.315Z,95.75
2023-03-06T03:43:24.704Z,94.52
2023-03-06T03:45:53.294Z,93.61
2023-03-06T03:48:20.323Z,92.48
2023-03-06T03:50:46.712Z,93.18
2023-03-06T03:53:13.274Z,93.95
2023-03-06T03:55:39.715Z,92.82
2023-03-06T03:58:06.193Z,92.48
2023-03-06T04:00:32.557Z,92.66
2023-03-06T04:02:59.011Z,93.30
2023-03-06T04:05:25.596Z,92.57
2023-03-06T04:07:52.398Z,92.85
2023-03-06T04:10:18.966Z,91.73
2023-03-06T04:12:45.463Z,92.58
2023-03-06T04:15:11.920Z,93.60
2023-03-06T04:17:38.323Z,91.97
2023-03-06T04:20:05.291Z,91.32
2023-03-06T04:22:31.891Z,89.97
2023-03-06T04:24:58.325Z,90.83
2023-03-06T04:27:24.978Z,93.33
2023-03-06T04:29:51.563Z,93.32
2023-03-06T04:32:20.334Z,93.28
2023-03-06T04:34:47.674Z,94.43
2023-03-06T04:37:24.090Z,93.78
2023-03-06T04:39:50.779Z,93.12
2023-03-06T04:42:17.775Z,93.31
2023-03-06T04:44:44.416Z,92.93
2023-03-06T04:47:11.872Z,93.29
2023-03-06T04:49:38.365Z,91.49
2023-03-06T04:52:05.545Z,91.67
2023-03-06T04:54:32.315Z,93.49
2023-03-06T04:56:58.774Z,93.34
2023-03-06T04:59:25.513Z,92.82
2023-03-06T05:01:52.053Z,93.23
2023-03-06T05:04:18.608Z,93.24
2023-03-06T05:06:45.045Z,91.08
2023-03-06T05:09:11.463Z,91.98
2023-03-06T05:11:37.862Z,93.09
2023-03-06T05:14:04.209Z,91.98
2023-03-06T05:16:30.628Z,92.62
2023-03-06T05:18:57.040Z,93.89
2023-03-06T05:21:23.752Z,92.07
2023-03-06T05:23:50.399Z,90.26
2023-03-06T05:26:16.872Z,90.38
2023-03-06T05:28:43.369Z,92.35
2023-03-06T05:31:10.444Z,93.12
2023-03-06T05:33:37.054Z,94.22
2023-03-06T05:36:03.983Z,93.67
2023-03-06T05:38:31.716Z,92.85
2023-03-06T05:40:58.108Z,93.28
2023-03-06T05:43:24.510Z,93.63
2023-03-06T05:45:52.908Z,93.41
2023-03-06T05:48:19.749Z,94.10
2023-03-06T05:50:46.154Z,92.13
2023-03-06T05:53:12.585Z,92.45
2023-03-06T05:55:39.126Z,90.84
2023-03-06T05:58:05.542Z,91.71
2023-03-06T06:00:31.965Z,92.01
2023-03-06T06:03:01.651Z,92.27
2023-03-06T06:05:28.096Z,92.82
2023-03-06T06:07:54.914Z,93.17
2023-03-06T06:10:21.347Z,93.18
2023-03-06T06:12:47.782Z,92.95
2023-03-06T06:15:15.342Z,92.80
2023-03-06T06:17:41.918Z,93.27
2023-03-06T06:20:09.157Z,92.06
2023-03-06T06:22:36.571Z,92.51
2023-03-06T06:25:03.229Z,93.23
2023-03-06T06:27:30.933Z,93.06
2023-03-06T06:29:57.362Z,92.48
2023-03-06T06:32:23.756Z,92.24
2023-03-06T06:34:50.253Z,91.09
2023-03-06T06:37:16.748Z,91.08
2023-03-06T06:39:43.185Z,91.56
2023-03-06T06:42:29.883Z,91.75
2023-03-06T06:44:56.568Z,92.36
2023-03-06T06:47:25.110Z,92.46
2023-03-06T06:49:53.947Z,92.95
2023-03-06T06:52:20.896Z,92.35
2023-03-06T06:54:47.443Z,92.37
2023-03-06T06:57:14.602Z,92.10
2023-03-06T06:59:41.100Z,91.60
2023-03-06T07:02:07.862Z,92.78
2023-03-06T07:04:34.454Z,92.43
2023-03-06T07:07:01.159Z,93.77
2023-03-06T07:09:27.949Z,93.61
2023-03-06T07:11:54.693Z,92.41
2023-03-06T07:14:21.160Z,93.64
2023-03-06T07:16:47.564Z,92.84
2023-03-06T07:19:14.187Z,92.85
2023-03-06T07:21:40.590Z,92.72
2023-03-06T07:24:07.322Z,91.60
2023-03-06T07:26:34.946Z,91.69
2023-03-06T07:29:02.458Z,92.28
2023-03-06T07:31:29.106Z,91.88
2023-03-06T07:33:55.936Z,90.69
2023-03-06T07:36:23.529Z,91.22
2023-03-06T07:38:50.262Z,90.92
2023-03-06T07:41:19.799Z,90.05
2023-03-06T07:43:48.421Z,89.39
2023-03-06T07:46:15.211Z,89.90
2023-03-06T07:48:42.443Z,90.02
2023-03-06T07:51:14.472Z,89.04
2023-03-06T07:53:40.845Z,88.64
2023-03-06T07:56:09.001Z,88.86
2023-03-06T07:58:36.643Z,89.17
2023-03-06T08:01:07.526Z,88.96
2023-03-06T08:03:34.542Z,88.64
2023-03-06T08:06:12.549Z,86.98
2023-03-06T08:08:40.689Z,85.29
2023-03-06T08:11:09.464Z,84.93
2023-03-06T08:13:36.707Z,83.51
2023-03-06T08:16:03.785Z,83.27
2023-03-06T08:18:30.580Z,81.94
2023-03-06T08:21:04.335Z,82.39
2023-03-06T08:23:31.515Z,80.85
2023-03-06T08:26:04.199Z,81.79
2023-03-06T08:28:31.280Z,81.70
2023-03-06T08:30:58.470Z,80.31
2023-03-06T08:33:24.992Z,82.18
2023-03-06T08:35:52.307Z,80.92
2023-03-06T08:38:19.006Z,82.59
2023-03-06T08:40:45.379Z,83.74
2023-03-06T08:43:14.106Z,81.30
2023-03-06T08:45:40.826Z,83.48
2023-03-06T08:48:07.400Z,82.72
2023-03-06T08:50:34.040Z,80.65
2023-03-06T08:53:00.738Z,80.68
2023-03-06T08:55:28.158Z,80.48
2023-03-06T08:57:54.656Z,81.36
2023-03-06T09:00:21.450Z,80.24
2023-03-06T09:02:47.874Z,80.15
2023-03-06T09:05:14.380Z,80.14
2023-03-06T09:07:41.291Z,80.82
2023-03-06T09:10:08.451Z,79.30
2023-03-06T09:12:48.807Z,77.92
2023-03-06T09:15:18.153Z,78.46
2023-03-06T09:17:44.745Z,77.18
2023-03-06T09:20:12.521Z,77.08
2023-03-06T09:22:39.219Z,76.60
2023-03-06T09:25:06.475Z,77.39
2023-03-06T09:29:59.900Z,77.29
2023-03-06T09:32:27.710Z,76.87
2023-03-06T09:34:54.334Z,76.42
2023-03-06T09:37:20.861Z,77.23
2023-03-06T09:39:48.341Z,75.08
2023-03-06T09:42:21.448Z,74.38
2023-03-06T09:44:56.632Z,75.33
2023-03-06T09:47:40.928Z,73.76
2023-03-06T09:50:13.512Z,74.69
2023-03-06T09:52:43.509Z,72.47
2023-03-06T09:55:17.822Z,74.06
2023-03-06T09:58:13.229Z,73.03
2023-03-06T10:00:43.080Z,73.85
2023-03-06T10:03:15.650Z,71.11
2023-03-06T10:05:47.163Z,72.26
2023-03-06T10:08:19.703Z,71.89
2023-03-06T10:10:57.728Z,71.72
2023-03-06T10:13:43.037Z,72.66
2023-03-06T10:16:25.573Z,72.94
2023-03-06T10:18:53.178Z,71.14
2023-03-06T10:21:38.288Z,71.03
2023-03-06T10:24:29.626Z,71.05
2023-03-06T10:27:14.340Z,72.65
2023-03-06T10:30:02.093Z,69.51
2023-03-06T10:32:49.484Z,69.65
2023-03-06T10:35:41.997Z,69.04
2023-03-06T10:38:37.377Z,69.92
2023-03-06T10:41:08.622Z,70.32
2023-03-06T10:43:36.715Z,69.61
2023-03-06T10:46:05.284Z,70.92
2023-03-06T10:48:35.980Z,68.99
2023-03-06T10:51:22.523Z,70.34
2023-03-06T10:53:57.124Z,69.09
2023-03-06T10:56:37.970Z,67.61
2023-03-06T10:59:17.902Z,67.54
2023-03-06T11:01:48.060Z,67.72
2023-03-06T11:04:23.935Z,65.10
2023-03-06T11:07:15.533Z,65.60
2023-03-06T11:09:59.463Z,65.01
2023-03-06T11:12:32.271Z,66.62
2023-03-06T11:15:21.078Z,66.20
2023-03-06T11:18:07.443Z,66.96
2023-03-06T11:20:51.433Z,66.55
2023-03-06T11:23:29.075Z,64.86
2023-03-06T11:26:02.493Z,67.02
2023-03-06T11:28:33.394Z,66.95
2023-03-06T11:30:59.848Z,65.60
2023-03-06T11:33:34.045Z,65.79
2023-03-06T11:36:30.292Z,65.47
2023-03-06T11:38:56.776Z,65.31
2023-03-06T11:41:33.644Z,65.45
2023-03-06T11:44:16.920Z,66.32
2023-03-06T11:46:50.558Z,65.77
2023-03-06T11:49:24.603Z,64.55
2023-03-06T11:52:06.238Z,62.66
2023-03-06T11:54:33.571Z,64.91
2023-03-06T11:57:17.186Z,63.35
2023-03-06T11:59:54.527Z,63.83
2023-03-06T12:02:57.889Z,64.39
2023-03-06T12:05:36.466Z,63.87
2023-03-06T12:08:12.999Z,62.90
2023-03-06T12:10:51.978Z,61.65
2023-03-06T12:13:31.129Z,60.95
2023-03-06T12:16:24.339Z,62.09
2023-03-06T12:18:56.774Z,62.59
2023-03-06T12:21:47.626Z,63.38
2023-03-06T12:24:26.205Z,62.05
2023-03-06T12:27:01.703Z,62.72
2023-03-06T12:29:56.084Z,62.83
2023-03-06T12:32:49.375Z,63.53
2023-03-06T12:35:15.843Z,63.74
2023-03-06T12:37:42.313Z,63.56
2023-03-06T12:40:27.720Z,63.34
2023-03-06T12:43:25.188Z,62.45
2023-03-06T12:45:57.590Z,61.63
2023-03-06T12:48:29.180Z,62.21
2023-03-06T12:50:56.592Z,61.29
2023-03-06T12:53:29.483Z,62.75
2023-03-06T12:55:58.110Z,62.48
2023-03-06T12:58:30.607Z,63.05
2023-03-06T13:01:08.047Z,64.03
2023-03-06T13:03:56.290Z,63.30
2023-03-06T13:06:59.800Z,62.32
2023-03-06T13:09:45.000Z,63.10
2023-03-06T13:12:36.275Z,63.63
2023-03-06T13:15:27.668Z,63.19
2023-03-06T13:17:54.732Z,61.16
2023-03-06T13:20:40.604Z,62.95
2023-03-06T13:23:29.002Z,64.10
2023-03-06T13:26:03.396Z,62.42
2023-03-06T13:28:49.818Z,62.52
2023-03-06T13:31:48.172Z,63.20
2023-03-06T13:34:38.103Z,61.80
2023-03-06T13:37:13.720Z,63.31
2023-03-06T13:39:58.463Z,63.45
2023-03-06T13:42:45.164Z,61.80
2023-03-06T13:45:24.730Z,63.83
2023-03-06T13:48:37.588Z,62.05
2023-03-06T13:50:48.217Z,63.13
2023-03-06T13:53:41.258Z,62.89
2023-03-06T13:56:25.775Z,63.59
2023-03-06T13:59:13.821Z,63.28
2023-03-06T14:01:45.084Z,63.73
2023-03-06T14:04:36.731Z,62.28
2023-03-06T14:07:28.803Z,62.76
2023-03-06T14:10:25.785Z,62.33
2023-03-06T14:13:02.949Z,62.98
2023-03-06T14:15:55.876Z,63.33
2023-03-06T14:18:26.214Z,64.31
2023-03-06T14:21:05.350Z,63.38
2023-03-06T14:23:35.239Z,63.15
2023-03-06T14:26:19.420Z,64.92
2023-03-06T14:28:58.465Z,64.83
2023-03-06T14:31:31.999Z,65.07
2023-03-06T14:34:15.853Z,64.93
2023-03-06T14:36:43.962Z,63.81
2023-03-06T14:39:17.537Z,64.95
2023-03-06T14:41:44.006Z,66.65
2023-03-06T14:44:26.307Z,68.21
2023-03-06T14:46:55.992Z,68.44
2023-03-06T14:49:25.315Z,70.92
2023-03-06T14:52:00.517Z,73.33
2023-03-06T14:54:34.083Z,74.14
2023-03-06T14:57:08.410Z,74.69
2023-03-06T14:59:41.922Z,74.11
2023-03-06T15:02:15.441Z,74.37
2023-03-06T15:04:46.692Z,75.03
2023-03-06T15:07:17.928Z,73.22
2023-03-06T15:09:48.685Z,72.66
2023-03-06T15:12:20.825Z,71.88
2023-03-06T15:15:00.816Z,73.19
2023-03-06T15:17:27.369Z,72.93
2023-03-06T15:19:59.486Z,72.30
2023-03-06T15:22:30.648Z,75.18
2023-03-06T15:25:18.956Z,73.80
2023-03-06T15:27:51.244Z,73.08
2023-03-06T15:30:36.394Z,73.66
2023-03-06T15:33:26.201Z,70.60
2023-03-06T15:35:57.266Z,72.79
2023-03-06T15:38:40.578Z,73.01
2023-03-06T15:41:21.476Z,73.83
2023-03-06T15:43:47.950Z,74.20
2023-03-06T15:46:14.486Z,70.69
2023-03-06T15:48:53.547Z,71.74
2023-03-06T15:51:20.512Z,71.65
2023-03-06T15:53:47.034Z,73.54
2023-03-06T15:56:13.437Z,72.06
2023-03-06T15:58:42.595Z,72.66
2023-03-06T16:01:17.305Z,73.69
2023-03-06T16:03:47.967Z,75.71
2023-03-06T16:06:19.395Z,76.10
2023-03-06T16:08:46.056Z,75.44
2023-03-06T16:11:20.412Z,75.20
2023-03-06T16:13:46.982Z,75.22
2023-03-06T16:16:19.242Z,75.34
2023-03-06T16:18:46.241Z,76.54
2023-03-06T16:21:12.776Z,75.75
2023-03-06T16:23:40.028Z,76.13
2023-03-06T16:26:18.478Z,75.87
2023-03-06T16:28:45.888Z,77.21
2023-03-06T16:31:13.988Z,76.26
2023-03-06T16:33:41.934Z,75.44
2023-03-06T16:36:13.764Z,76.18
2023-03-06T16:38:40.369Z,75.93
2023-03-06T16:41:06.790Z,76.51
2023-03-06T16:43:33.194Z,75.88
2023-03-06T16:45:59.765Z,77.02
2023-03-06T16:48:26.268Z,77.92
2023-03-06T16:50:53.242Z,77.68
2023-03-06T16:53:19.745Z,77.20
2023-03-06T16:55:46.399Z,76.49
2023-03-06T16:58:12.979Z,78.53
2023-03-06T17:00:39.483Z,77.99
2023-03-06T17:03:06.516Z,76.52
2023-03-06T17:05:37.929Z,77.31
2023-03-06T17:08:04.792Z,75.96
2023-03-06T17:10:31.827Z,75.69
2023-03-06T17:12:58.234Z,78.54
2023-03-06T17:15:24.704Z,79.38
2023-03-06T17:17:52.240Z,76.89
2023-03-06T17:20:19.534Z,76.06
2023-03-06T17:22:45.994Z,75.74
2023-03-06T17:25:12.585Z,77.49
2023-03-06T17:27:38.938Z,79.60
2023-03-06T17:30:06.667Z,82.03
2023-03-06T17:32:34.042Z,82.40
2023-03-06T17:35:00.497Z,79.87
2023-03-06T17:37:27.032Z,79.44
2023-03-06T17:39:53.654Z,80.04
2023-03-06T17:42:20.221Z,78.12
2023-03-06T17:44:47.829Z,75.74
2023-03-06T17:47:14.405Z,77.87
2023-03-06T17:49:40.763Z,78.46
2023-03-06T17:52:07.399Z,79.96
2023-03-06T17:54:34.370Z,80.38
2023-03-06T17:57:03.460Z,81.37
2023-03-06T17:59:33.758Z,81.21
2023-03-06T18:02:00.985Z,81.78
2023-03-06T18:04:28.131Z,81.53
2023-03-06T18:06:54.593Z,81.75
2023-03-06T18:09:21.023Z,82.58
2023-03-06T18:11:47.402Z,81.53
2023-03-06T18:14:14.117Z,81.74
2023-03-06T18:16:41.361Z,82.72
2023-03-06T18:19:10.855Z,83.46
2023-03-06T18:21:38.423Z,83.86
2023-03-06T18:24:05.185Z,84.67
2023-03-06T18:26:32.106Z,85.55
2023-03-06T18:29:01.378Z,85.84
2023-03-06T18:31:34.176Z,85.95
2023-03-06T18:34:02.762Z,85.38
2023-03-06T18:36:31.959Z,86.51
2023-03-06T18:38:59.147Z,88.06
2023-03-06T18:41:25.747Z,87.70
2023-03-06T18:43:54.388Z,85.64
2023-03-06T18:46:21.626Z,85.31
2023-03-06T18:48:48.164Z,85.14
2023-03-06T18:51:15.096Z,84.55
2023-03-06T18:53:42.317Z,84.65
2023-03-06T18:56:13.267Z,84.51
2023-03-06T18:58:40.085Z,84.19
2023-03-06T19:01:07.486Z,83.71
2023-03-06T19:03:34.428Z,85.15
2023-03-06T19:06:08.921Z,83.37
2023-03-06T19:08:37.146Z,84.86
2023-03-06T19:11:09.236Z,85.43
2023-03-06T19:13:36.118Z,84.44
2023-03-06T19:16:03.196Z,83.27
2023-03-06T19:18:30.170Z,82.17
2023-03-06T19:21:07.700Z,82.55
2023-03-06T19:23:34.261Z,81.35
2023-03-06T19:26:00.686Z,80.72
2023-03-06T19:28:27.289Z,81.63
2023-03-06T19:30:53.854Z,81.57
2023-03-06T19:33:20.329Z,81.82
2023-03-06T19:35:47.759Z,82.70
2023-03-06T19:38:15.461Z,82.08
2023-03-06T19:40:49.000Z,81.24
2023-03-06T19:43:15.510Z,80.10
2023-03-06T19:45:43.773Z,76.67
2023-03-06T19:48:12.441Z,79.00
2023-03-06T19:50:40.510Z,77.38
2023-03-06T19:53:08.268Z,77.90
2023-03-06T19:55:35.029Z,75.93
2023-03-06T19:58:01.728Z,73.84
2023-03-06T20:00:28.369Z,75.96
2023-03-06T20:02:55.625Z,76.72
2023-03-06T20:05:22.311Z,76.04
2023-03-06T20:07:49.527Z,73.81
2023-03-06T20:10:16.314Z,74.66
2023-03-06T20:12:42.757Z,73.58
2023-03-06T20:15:09.672Z,72.76
2023-03-06T20:17:40.372Z,74.64
2023-03-06T20:20:10.463Z,74.98
2023-03-06T20:22:37.158Z,70.30
2023-03-06T20:25:04.555Z,74.53
2023-03-06T20:27:31.296Z,73.79
2023-03-06T20:29:57.793Z,72.11
2023-03-06T20:32:24.258Z,74.29
2023-03-06T20:34:50.690Z,72.78
2023-03-06T20:37:17.277Z,73.52
2023-03-06T20:39:43.708Z,71.71
2023-03-06T20:42:10.160Z,72.64
2023-03-06T20:44:36.582Z,71.11
2023-03-06T20:47:03.205Z,71.38
2023-03-06T20:49:29.717Z,73.10
2023-03-06T20:51:56.575Z,69.33
2023-03-06T20:54:23.230Z,72.54
2023-03-06T20:56:50.155Z,69.82
2023-03-06T20:59:16.962Z,71.72
2023-03-06T21:01:45.873Z,75.15
2023-03-06T21:04:13.996Z,70.64
2023-03-06T21:06:45.182Z,72.28
2023-03-06T21:09:12.933Z,71.54
2023-03-06T21:11:39.470Z,73.56
2023-03-06T21:14:06.945Z,70.78
2023-03-06T21:16:33.649Z,69.97
2023-03-06T21:19:00.789Z,71.74
2023-03-06T21:21:29.151Z,69.65
2023-03-06T21:23:55.839Z,70.67
2023-03-06T21:26:24.546Z,71.99
2023-03-06T21:28:51.336Z,72.42
2023-03-06T21:31:19.826Z,70.79
2023-03-06T21:33:48.588Z,73.42
2023-03-06T21:36:15.720Z,73.38
2023-03-06T21:38:42.153Z,71.40
2023-03-06T21:41:15.062Z,73.54
2023-03-06T21:43:41.762Z,74.11
2023-03-06T21:46:09.195Z,74.63
2023-03-06T21:48:35.685Z,72.27
2023-03-06T21:51:07.921Z,71.64
2023-03-06T21:53:34.750Z,71.40
2023-03-06T21:56:02.026Z,71.90
2023-03-06T21:58:29.724Z,71.49
2023-03-06T22:00:56.571Z,71.55
2023-03-06T22:03:23.088Z,70.96
2023-03-06T22:05:49.464Z,72.34
2023-03-06T22:08:15.983Z,71.00
2023-03-06T22:10:42.551Z,72.61
2023-03-06T22:13:09.299Z,73.34
2023-03-06T22:15:36.804Z,72.67
2023-03-06T22:18:03.374Z,74.26
2023-03-06T22:20:29.887Z,74.38
2023-03-06T22:22:57.018Z,72.62
2023-03-06T22:25:23.337Z,72.92
2023-03-06T22:27:50.073Z,73.17
2023-03-06T22:30:17.733Z,73.84
2023-03-06T22:32:44.206Z,74.28
2023-03-06T22:35:10.676Z,74.78
2023-03-06T22:37:37.274Z,72.60
2023-03-06T22:40:03.977Z,73.72
2023-03-06T22:42:30.519Z,73.46
2023-03-06T22:44:56.898Z,73.58
2023-03-06T22:47:23.252Z,75.01
2023-03-06T22:49:49.682Z,74.80
2023-03-06T22:52:19.367Z,73.55
2023-03-06T22:54:45.853Z,74.39
2023-03-06T22:57:12.284Z,73.87
2023-03-06T22:59:38.665Z,74.09
2023-03-06T23:02:05.180Z,74.26
2023-03-06T23:04:31.729Z,73.24
2023-03-06T23:06:58.138Z,74.00
2023-03-06T23:09:25.435Z,74.02
2023-03-06T23:11:52.385Z,74.33
2023-03-06T23:14:19.909Z,73.59
2023-03-06T23:16:46.387Z,74.72
2023-03-06T23:19:12.871Z,73.23
2023-03-06T23:21:39.383Z,74.50
2023-03-06T23:24:06.858Z,73.55
2023-03-06T23:26:37.006Z,74.17
2023-03-06T23:29:04.232Z,74.29
2023-03-06T23:31:31.503Z,73.95
2023-03-06T23:34:02.497Z,73.25
2023-03-06T23:36:30.191Z,74.96
2023-03-06T23:38:57.428Z,74.20
2023-03-06T23:41:24.698Z,74.57
2023-03-06T23:43:54.949Z,74.22
2023-03-06T23:46:21.785Z,74.21
2023-03-06T23:48:48.218Z,75.23
2023-03-06T23:51:19.941Z,75.92
2023-03-06T23:53:48.312Z,76.20
2023-03-06T23:56:15.294Z,74.72
2023-03-06T23:58:41.786Z,75.65
